Time;durP1;ratioP1;P1;durP2;ratioP2;P2;SDS_P1;SDS_P2;PMS_P1;PMS_P2;Temp;Humidity;BMP_temperature;BMP_pressure;BME280_temperature;BME280_humidity;BME280_pressure;Samples;Min_cycle;Max_cycle;Signal;HPM_P1;HPM_P2
2022/09/15 00:00:50;;;;;;;4.47;1.90;;;;;;;17.01;79.73;93065.63;5132432;27;20055;-74
2022/09/15 00:03:17;;;;;;;2.80;1.55;;;;;;;17.07;79.06;93075.00;5132534;27;20043;-74
2022/09/15 00:05:45;;;;;;;3.53;1.90;;;;;;;17.07;79.62;93077.59;5132550;27;20092;-74
2022/09/15 00:08:13;;;;;;;4.40;1.77;;;;;;;16.96;79.51;93067.16;5132569;27;20403;-74
2022/09/15 00:10:47;;;;;;;3.50;2.00;;;;;;;16.99;79.93;93070.28;5132385;27;20054;-74
2022/09/15 00:13:14;;;;;;;5.75;1.92;;;;;;;17.01;79.68;93074.19;5132445;27;20070;-74
2022/09/15 00:15:41;;;;;;;5.18;2.00;;;;;;;16.99;80.60;93071.06;5132477;27;20039;-74
2022/09/15 00:18:08;;;;;;;5.35;1.95;;;;;;;17.02;80.29;93072.34;5117318;27;20035;-74
2022/09/15 00:20:35;;;;;;;4.88;1.95;;;;;;;16.99;80.16;93072.88;5117527;27;20043;-74
2022/09/15 00:23:03;;;;;;;8.93;2.58;;;;;;;17.00;80.28;93070.03;5132141;27;20043;-74
2022/09/15 00:25:29;;;;;;;6.25;2.00;;;;;;;16.98;80.27;93068.72;5132200;27;20039;-74
2022/09/15 00:27:56;;;;;;;4.80;2.55;;;;;;;16.98;80.58;93073.91;5131771;27;20047;-74
2022/09/15 00:30:23;;;;;;;6.45;2.05;;;;;;;16.98;80.51;93077.28;5102930;27;20048;-74
2022/09/15 00:32:50;;;;;;;6.88;2.70;;;;;;;16.94;80.36;93071.81;5132099;27;20088;-74
2022/09/15 00:35:17;;;;;;;7.70;2.63;;;;;;;16.92;80.38;93067.91;5132043;27;20483;-75
2022/09/15 00:37:43;;;;;;;4.55;2.13;;;;;;;16.91;80.72;93067.16;5131878;27;20108;-75
2022/09/15 00:40:12;;;;;;;6.10;2.47;;;;;;;16.86;81.00;93055.94;5131604;27;20111;-74
2022/09/15 00:42:38;;;;;;;8.85;2.70;;;;;;;16.88;81.20;93069.44;5131669;27;20043;-75
2022/09/15 00:45:06;;;;;;;7.55;2.78;;;;;;;16.87;81.27;93058.31;5131893;27;20437;-75
2022/09/15 00:47:36;;;;;;;8.10;2.25;;;;;;;16.77;81.29;93040.09;5131632;27;20420;-75
2022/09/15 00:50:11;;;;;;;5.95;2.30;;;;;;;16.87;81.16;93057.50;5131963;27;20051;-75
2022/09/15 00:52:43;;;;;;;7.47;2.43;;;;;;;16.83;80.78;93054.66;5131573;27;20050;-74
2022/09/15 00:55:15;;;;;;;5.25;2.30;;;;;;;16.78;81.30;93049.44;5131666;27;20043;-74
2022/09/15 00:57:46;;;;;;;10.70;2.80;;;;;;;16.67;80.96;93033.03;5117112;27;20104;-74
2022/09/15 01:00:17;;;;;;;8.05;2.55;;;;;;;16.76;81.13;93060.03;5131249;27;20096;-74
2022/09/15 01:02:46;;;;;;;7.38;2.40;;;;;;;16.73;80.41;93050.19;5131411;27;20087;-74
2022/09/15 01:05:16;;;;;;;9.05;2.35;;;;;;;16.77;79.95;93050.47;5131221;27;20499;-74
2022/09/15 01:07:46;;;;;;;6.78;2.50;;;;;;;16.79;79.03;93045.78;5116293;27;20043;-74
2022/09/15 01:10:18;;;;;;;8.07;2.47;;;;;;;16.79;79.39;93046.59;5131352;27;20051;-74
2022/09/15 01:12:46;;;;;;;9.82;2.80;;;;;;;16.77;79.30;93034.91;5131248;27;20130;-75
2022/09/15 01:15:12;;;;;;;10.88;3.15;;;;;;;16.68;78.87;93014.63;5131285;27;20096;-75
2022/09/15 01:17:53;;;;;;;7.03;2.45;;;;;;;16.67;78.88;93015.66;5130818;27;20051;-75
2022/09/15 01:20:57;;;;;;;9.10;2.63;;;;;;;16.87;79.38;93039.34;5116608;27;20044;-74
2022/09/15 01:23:38;;;;;;;7.65;2.95;;;;;;;16.74;79.47;93025.81;5121793;27;20088;-74
2022/09/15 01:26:37;;;;;;;7.97;2.78;;;;;;;16.80;79.85;93040.38;5120330;27;20039;-74
2022/09/15 01:29:42;;;;;;;7.03;2.45;;;;;;;16.79;81.02;93038.00;5109848;27;20445;-74
2022/09/15 01:35:07;;;;;;;6.65;3.08;;;;;;;16.72;81.18;93042.66;5102706;28;20422;-74
2022/09/15 01:37:39;;;;;;;7.05;2.85;;;;;;;16.74;81.49;93045.78;5098709;28;20499;-74
2022/09/15 01:40:08;;;;;;;7.10;2.97;;;;;;;16.73;81.10;93045.00;5095567;28;20101;-74
2022/09/15 01:42:37;;;;;;;8.10;2.65;;;;;;;16.72;81.04;93040.06;5089310;28;20044;-73
2022/09/15 01:45:08;;;;;;;15.88;4.22;;;;;;;16.64;82.77;93042.09;5089475;28;20036;-74
2022/09/15 01:47:37;;;;;;;7.22;3.10;;;;;;;16.65;81.52;93042.88;5089048;28;20044;-74
2022/09/15 01:50:09;;;;;;;7.63;3.30;;;;;;;16.60;83.49;93053.22;5089431;28;20036;-74
2022/09/15 01:52:41;;;;;;;9.80;3.67;;;;;;;16.60;82.72;93042.84;5088994;28;20052;-74
2022/09/15 01:55:14;;;;;;;9.60;2.80;;;;;;;16.56;83.32;93045.94;5088985;28;20046;-75
2022/09/15 01:57:41;;;;;;;9.18;3.45;;;;;;;16.45;84.17;93040.94;5089275;28;20044;-75
2022/09/15 02:00:10;;;;;;;7.97;2.85;;;;;;;16.49;83.93;93035.03;5088870;28;20044;-74
2022/09/15 02:02:41;;;;;;;6.55;2.97;;;;;;;16.55;84.03;93043.59;5089122;28;20438;-74
2022/09/15 02:05:15;;;;;;;8.30;2.80;;;;;;;16.49;84.30;93044.59;5088910;28;20051;-74
2022/09/15 02:07:50;;;;;;;10.20;3.95;;;;;;;16.51;84.25;93050.31;5106600;28;20079;-74
2022/09/15 02:10:22;;;;;;;10.77;2.95;;;;;;;16.50;84.02;93051.34;5109506;28;20450;-74
2022/09/15 02:12:58;;;;;;;11.40;3.90;;;;;;;16.45;84.90;93046.13;5109349;28;20053;-75
2022/09/15 02:15:32;;;;;;;9.07;2.92;;;;;;;16.46;85.70;93042.50;5109355;28;20383;-75
2022/09/15 02:18:02;;;;;;;13.05;4.05;;;;;;;16.40;86.83;93026.16;5109253;28;20071;-75
2022/09/15 02:20:39;;;;;;;15.88;5.57;;;;;;;16.27;88.21;93022.97;5108885;28;20051;-75
2022/09/15 02:23:11;;;;;;;12.93;4.18;;;;;;;16.25;88.57;93029.44;5109012;28;20088;-75
2022/09/15 02:25:47;;;;;;;14.52;6.82;;;;;;;16.15;89.44;93020.53;5109051;28;20493;-75
2022/09/15 02:28:18;;;;;;;14.80;5.50;;;;;;;16.19;89.71;93030.44;5109265;28;20056;-74
2022/09/15 02:30:48;;;;;;;12.98;5.47;;;;;;;16.12;90.40;93028.03;5109077;28;20048;-74
2022/09/15 02:33:19;;;;;;;12.10;4.40;;;;;;;16.05;89.57;93017.13;5109081;28;20128;-74
2022/09/15 02:35:47;;;;;;;12.43;3.58;;;;;;;16.10;90.77;93027.53;5109058;28;20048;-74
2022/09/15 02:38:15;;;;;;;13.88;3.75;;;;;;;16.07;89.99;93021.03;5108847;28;20547;-74
2022/09/15 02:40:43;;;;;;;11.88;4.22;;;;;;;16.08;89.78;93014.00;5108614;28;20124;-74
2022/09/15 02:43:12;;;;;;;12.70;4.13;;;;;;;16.08;89.68;93017.41;5109038;28;20035;-74
2022/09/15 02:45:39;;;;;;;10.85;3.40;;;;;;;16.09;90.25;93010.38;5108542;28;20043;-73
2022/09/15 02:48:08;;;;;;;13.07;4.00;;;;;;;15.86;90.61;92973.41;5109019;28;20436;-73
2022/09/15 02:50:35;;;;;;;9.50;3.75;;;;;;;16.06;91.27;93016.84;5109346;28;20136;-74
2022/09/15 02:53:02;;;;;;;15.57;4.15;;;;;;;16.00;92.53;93005.69;5112984;28;20124;-73
2022/09/15 02:55:29;;;;;;;9.52;4.95;;;;;;;15.97;93.79;93013.94;5113049;28;20449;-74
2022/09/15 02:57:56;;;;;;;13.70;5.75;;;;;;;15.94;95.23;93005.88;5113100;28;20110;-74
2022/09/15 03:00:22;;;;;;;12.73;6.30;;;;;;;15.79;96.30;93016.88;5112462;28;20044;-74
2022/09/15 03:02:52;;;;;;;13.48;6.40;;;;;;;15.59;98.17;93016.44;5112926;28;20052;-73
2022/09/15 03:05:22;;;;;;;10.02;5.35;;;;;;;15.49;98.14;93022.31;5112374;28;20047;-74
2022/09/15 03:07:49;;;;;;;8.77;3.97;;;;;;;15.44;97.42;93018.91;5112543;28;20088;-73
2022/09/15 03:10:16;;;;;;;8.48;3.58;;;;;;;15.47;95.47;93028.78;5112539;28;20483;-73
2022/09/15 03:12:45;;;;;;;7.30;3.33;;;;;;;15.48;95.63;93032.91;5112714;28;20048;-74
2022/09/15 03:15:13;;;;;;;11.25;3.92;;;;;;;15.52;96.20;93028.03;5112701;28;20047;-74
2022/09/15 03:17:42;;;;;;;6.53;3.40;;;;;;;15.45;96.80;93034.19;5112426;28;20093;-74
2022/09/15 03:20:11;;;;;;;7.32;3.05;;;;;;;15.47;96.22;93032.13;5112209;28;20048;-74
2022/09/15 03:22:39;;;;;;;7.82;2.92;;;;;;;15.39;96.98;93024.81;5112408;28;20047;-74
2022/09/15 03:25:07;;;;;;;9.85;3.40;;;;;;;15.47;97.10;93039.88;5112447;28;20097;-74
2022/09/15 03:27:35;;;;;;;8.88;2.78;;;;;;;15.46;97.72;93038.34;5112454;28;20054;-74
2022/09/15 03:30:02;;;;;;;6.90;2.85;;;;;;;15.30;97.83;93031.44;5111902;28;20487;-74
2022/09/15 03:32:29;;;;;;;7.25;2.47;;;;;;;15.26;97.21;93043.28;5112253;28;20045;-74
2022/09/15 03:34:55;;;;;;;7.07;3.15;;;;;;;15.14;98.75;93048.63;5112045;28;20048;-75
2022/09/15 03:37:22;;;;;;;16.77;5.07;;;;;;;14.80;100.00;93042.53;5112044;28;20040;-74
2022/09/15 03:39:50;;;;;;;11.50;4.93;;;;;;;14.66;100.00;93018.81;5112100;28;20452;-74
2022/09/15 03:42:18;;;;;;;9.60;5.05;;;;;;;14.85;100.00;93053.97;5112162;28;20040;-74
2022/09/15 03:44:45;;;;;;;10.88;4.55;;;;;;;14.80;100.00;93052.09;5112106;28;20054;-75
2022/09/15 03:47:11;;;;;;;9.20;5.30;;;;;;;14.73;100.00;93049.66;5112036;28;20040;-75
2022/09/15 03:49:38;;;;;;;14.60;4.80;;;;;;;14.67;100.00;93043.63;5111697;28;20094;-74
2022/09/15 03:52:05;;;;;;;11.50;4.93;;;;;;;14.66;100.00;93042.06;5111986;28;20373;-74
2022/09/15 03:54:33;;;;;;;15.77;5.38;;;;;;;14.43;100.00;93030.13;5111822;28;20052;-74
2022/09/15 03:57:02;;;;;;;9.85;5.00;;;;;;;14.39;100.00;93035.00;5111706;28;20134;-74
2022/09/15 03:59:28;;;;;;;10.32;4.50;;;;;;;14.34;100.00;93040.09;5111688;28;20048;-74
2022/09/15 04:01:55;;;;;;;8.75;4.63;;;;;;;14.21;100.00;93045.59;5110903;28;20400;-74
2022/09/15 04:04:22;;;;;;;8.48;4.90;;;;;;;14.16;100.00;93048.84;5110964;28;20100;-74
2022/09/15 04:06:48;;;;;;;10.43;4.90;;;;;;;14.15;100.00;93045.50;5111506;28;20088;-74
2022/09/15 04:09:15;;;;;;;11.98;6.57;;;;;;;13.90;100.00;93023.44;5111695;28;20093;-74
2022/09/15 04:11:42;;;;;;;11.88;6.18;;;;;;;14.07;100.00;93055.44;5111394;28;20093;-74
2022/09/15 04:14:10;;;;;;;10.18;5.63;;;;;;;14.02;100.00;93056.13;5111255;28;20495;-74
2022/09/15 04:16:37;;;;;;;15.23;7.30;;;;;;;13.95;100.00;93048.56;5111470;28;20058;-74
2022/09/15 04:19:04;;;;;;;42.70;22.75;;;;;;;13.99;100.00;93048.88;5111633;28;20039;-74
2022/09/15 04:21:31;;;;;;;18.33;8.77;;;;;;;14.03;100.00;93050.75;5111066;28;20512;-74
2022/09/15 04:23:58;;;;;;;81.82;40.20;;;;;;;14.00;100.00;93051.22;5110983;28;20583;-74
2022/09/15 04:26:28;;;;;;;33.47;18.67;;;;;;;14.02;100.00;93058.72;5111091;28;20040;-74
2022/09/15 04:28:56;;;;;;;61.58;29.42;;;;;;;14.01;100.00;93050.19;5110952;28;20131;-74
2022/09/15 04:31:24;;;;;;;46.92;22.23;;;;;;;14.06;100.00;93043.56;5111089;28;20101;-74
2022/09/15 04:33:53;;;;;;;32.95;15.75;;;;;;;14.06;100.00;93049.50;5111071;28;20093;-75
2022/09/15 04:36:23;;;;;;;60.10;28.20;;;;;;;14.07;100.00;93047.72;5110506;28;20039;-75
2022/09/15 04:38:50;;;;;;;33.50;16.58;;;;;;;13.83;100.00;93046.03;5111161;28;20380;-75
2022/09/15 04:41:18;;;;;;;22.60;8.95;;;;;;;13.97;100.00;93056.84;5110538;28;20055;-74
2022/09/15 04:43:45;;;;;;;17.52;7.25;;;;;;;13.97;100.00;93056.06;5110929;28;20050;-75
2022/09/15 04:46:13;;;;;;;17.52;7.53;;;;;;;13.92;100.00;93063.75;5110560;28;20052;-75
2022/09/15 04:48:41;;;;;;;10.35;6.43;;;;;;;13.83;100.00;93053.00;5110659;28;20047;-75
2022/09/15 04:51:11;;;;;;;18.63;7.22;;;;;;;13.79;100.00;93057.06;5110522;28;20092;-74
2022/09/15 04:53:38;;;;;;;13.60;6.40;;;;;;;13.81;100.00;93055.81;5110640;28;20101;-74
2022/09/15 04:56:05;;;;;;;13.57;7.25;;;;;;;13.84;100.00;93050.19;5110434;28;20487;-74
2022/09/15 04:58:36;;;;;;;16.15;6.65;;;;;;;13.75;100.00;93039.47;5110407;28;20044;-74
2022/09/15 05:01:08;;;;;;;15.25;6.35;;;;;;;13.85;100.00;93036.25;5110298;28;20093;-75
2022/09/15 05:03:35;;;;;;;12.60;7.72;;;;;;;13.90;100.00;93044.09;5110541;28;20136;-74
2022/09/15 05:06:04;;;;;;;14.90;6.68;;;;;;;13.97;100.00;93043.13;5110504;28;20039;-74
2022/09/15 05:08:31;;;;;;;14.93;7.22;;;;;;;14.05;100.00;93041.97;5110176;28;20054;-74
2022/09/15 05:10:59;;;;;;;14.13;7.00;;;;;;;14.10;100.00;93052.38;5110297;28;20048;-75
2022/09/15 05:13:26;;;;;;;15.90;6.63;;;;;;;13.95;100.00;93037.44;5110093;28;20039;-75
2022/09/15 05:15:53;;;;;;;11.50;6.80;;;;;;;14.09;100.00;93049.03;5110101;28;20062;-74
2022/09/15 05:18:20;;;;;;;14.75;6.50;;;;;;;14.02;100.00;93036.28;5110088;28;20470;-74
2022/09/15 05:20:46;;;;;;;32.55;17.73;;;;;;;14.20;100.00;93039.63;5109801;28;20097;-74
2022/09/15 05:23:14;;;;;;;14.35;7.10;;;;;;;14.18;100.00;93033.13;5110183;28;20044;-74
2022/09/15 05:25:41;;;;;;;15.65;7.78;;;;;;;14.33;100.00;93041.09;5109809;28;20039;-75
2022/09/15 05:28:08;;;;;;;13.90;6.93;;;;;;;14.45;100.00;93033.28;5109714;28;20089;-74
2022/09/15 05:30:34;;;;;;;16.10;6.40;;;;;;;14.53;100.00;93039.81;5110266;28;20048;-74
2022/09/15 05:33:01;;;;;;;13.02;6.20;;;;;;;14.67;100.00;93029.91;5109451;28;20043;-74
2022/09/15 05:35:28;;;;;;;15.40;7.45;;;;;;;14.79;100.00;93028.03;5109937;28;20104;-75
2022/09/15 05:37:54;;;;;;;18.05;9.07;;;;;;;14.96;100.00;93022.03;5109633;28;20047;-75
2022/09/15 05:40:22;;;;;;;16.98;6.07;;;;;;;15.14;100.00;93017.56;5109593;28;20448;-75
2022/09/15 05:42:49;;;;;;;15.05;6.20;;;;;;;15.28;100.00;93003.22;5109583;28;20513;-75
2022/09/15 05:45:16;;;;;;;10.98;5.53;;;;;;;15.48;100.00;93007.81;5109803;28;20048;-75
2022/09/15 05:47:43;;;;;;;15.27;7.82;;;;;;;15.69;100.00;92994.28;5109624;28;20543;-74
2022/09/15 05:50:11;;;;;;;17.52;7.55;;;;;;;15.86;100.00;92991.53;5109883;28;20051;-75
2022/09/15 05:52:37;;;;;;;13.68;4.90;;;;;;;16.07;100.00;92992.53;5123822;27;20522;-75
2022/09/15 05:55:05;;;;;;;13.45;4.47;;;;;;;16.23;100.00;92990.00;5122653;27;20407;-75
2022/09/15 05:57:33;;;;;;;12.07;4.30;;;;;;;16.39;100.00;92990.91;5109578;28;20043;-75
2022/09/15 05:59:59;;;;;;;8.73;3.95;;;;;;;16.59;100.00;92987.63;5092064;28;20048;-75
2022/09/15 06:02:26;;;;;;;7.43;3.28;;;;;;;16.80;99.36;92982.53;5088693;28;20123;-75
2022/09/15 06:04:53;;;;;;;4.65;2.05;;;;;;;17.05;98.62;92984.47;5089017;28;20101;-74
2022/09/15 06:07:19;;;;;;;4.80;2.90;;;;;;;17.28;96.02;92984.25;5088869;28;20491;-74
2022/09/15 06:09:46;;;;;;;7.45;3.03;;;;;;;17.54;94.10;92986.88;5125047;27;20039;-75
2022/09/15 06:12:13;;;;;;;6.38;2.03;;;;;;;17.74;92.63;92973.13;5090636;28;20457;-74
2022/09/15 06:14:43;;;;;;;6.53;1.95;;;;;;;18.06;90.53;92995.50;5088495;28;20513;-75
2022/09/15 06:17:10;;;;;;;7.38;2.00;;;;;;;18.28;88.69;92995.19;5088996;28;20086;-75
2022/09/15 06:19:36;;;;;;;6.07;1.95;;;;;;;18.52;87.29;92992.03;5090258;28;20499;-75
2022/09/15 06:22:03;;;;;;;3.30;1.85;;;;;;;18.78;85.29;92989.34;5088605;28;20048;-75
2022/09/15 06:24:30;;;;;;;7.10;2.78;;;;;;;19.06;83.74;92983.78;5088626;28;20048;-75
2022/09/15 06:26:57;;;;;;;3.63;1.77;;;;;;;19.36;80.81;92977.63;5088298;28;20113;-76
2022/09/15 06:29:24;;;;;;;3.47;1.65;;;;;;;19.63;77.27;92971.22;5089070;28;20036;-76
2022/09/15 06:31:52;;;;;;;3.95;2.10;;;;;;;19.97;74.31;92964.47;5088670;28;20131;-75
2022/09/15 06:34:19;;;;;;;2.55;1.70;;;;;;;20.26;69.11;92965.50;5088223;28;20507;-76
2022/09/15 06:36:45;;;;;;;3.20;1.60;;;;;;;20.49;67.04;92953.53;5088633;28;20045;-75
2022/09/15 06:39:12;;;;;;;4.00;1.55;;;;;;;20.77;66.15;92960.78;5088503;28;20503;-75
2022/09/15 06:41:39;;;;;;;3.97;1.58;;;;;;;20.96;63.98;92956.41;5088080;28;20093;-75
2022/09/15 06:44:06;;;;;;;2.42;1.35;;;;;;;21.04;61.81;92933.31;5109083;28;20085;-75
2022/09/15 06:46:33;;;;;;;7.18;1.38;;;;;;;21.43;60.26;92961.00;5121687;28;20043;-75
2022/09/15 06:49:01;;;;;;;3.85;1.30;;;;;;;21.61;58.91;92967.28;5115279;28;20043;-75
2022/09/15 06:51:34;;;;;;;8.88;1.30;;;;;;;21.79;57.28;92977.25;5129999;28;20043;-75
2022/09/15 06:54:00;;;;;;;4.60;1.50;;;;;;;21.89;56.46;92977.84;5096262;28;20048;-75
2022/09/15 06:56:28;;;;;;;4.25;1.20;;;;;;;22.04;55.54;92978.69;5088439;28;20044;-75
2022/09/15 06:58:55;;;;;;;5.20;1.27;;;;;;;22.22;56.14;92987.50;5125231;28;20063;-75
2022/09/15 07:01:24;;;;;;;3.25;1.15;;;;;;;22.42;55.67;92993.47;5126116;28;20059;-75
2022/09/15 07:03:51;;;;;;;3.72;1.10;;;;;;;22.59;55.05;93007.84;5115121;28;20043;-76
2022/09/15 07:06:19;;;;;;;2.20;1.20;;;;;;;22.72;53.62;93001.09;5115656;28;20039;-75
2022/09/15 07:08:46;;;;;;;3.30;1.40;;;;;;;22.94;53.52;93031.81;5129845;28;20440;-75
2022/09/15 07:11:14;;;;;;;3.53;1.23;;;;;;;23.17;52.77;93043.16;5119388;28;20121;-75
2022/09/15 07:13:41;;;;;;;3.35;1.20;;;;;;;23.43;53.09;93042.69;5105604;28;20531;-75
2022/09/15 07:16:10;;;;;;;4.13;1.80;;;;;;;23.56;50.79;93032.44;5129353;28;20047;-75
2022/09/15 07:18:37;;;;;;;5.07;1.27;;;;;;;23.71;50.10;93040.00;5129402;28;20548;-76
2022/09/15 07:21:07;;;;;;;3.13;1.45;;;;;;;23.93;49.74;93045.53;5114786;28;20325;-76
2022/09/15 07:23:35;;;;;;;5.95;2.00;;;;;;;24.10;49.87;93055.41;5110281;28;20052;-76
2022/09/15 07:26:08;;;;;;;3.05;1.30;;;;;;;24.30;49.36;93059.38;5094578;28;20458;-75
2022/09/15 07:28:35;;;;;;;5.60;1.33;;;;;;;24.53;49.34;93056.75;5106028;28;20043;-75
2022/09/15 07:31:03;;;;;;;4.63;1.30;;;;;;;24.72;48.68;93068.88;5103079;28;20114;-76
2022/09/15 07:33:30;;;;;;;5.60;1.35;;;;;;;24.92;47.86;93078.13;5116713;28;20092;-76
2022/09/15 07:35:57;;;;;;;4.10;1.23;;;;;;;25.10;46.98;93071.06;5129525;28;20095;-76
2022/09/15 07:38:24;;;;;;;2.22;1.35;;;;;;;25.28;46.72;93069.28;5125683;27;20456;-76
2022/09/15 07:40:52;;;;;;;4.88;2.05;;;;;;;25.55;47.11;93079.88;5116849;27;20450;-76
2022/09/15 07:43:18;;;;;;;4.65;1.75;;;;;;;25.80;46.03;93080.19;5128694;27;20441;-76
2022/09/15 07:45:46;;;;;;;4.93;1.65;;;;;;;26.01;45.91;93085.63;5133151;27;20043;-76
2022/09/15 07:48:13;;;;;;;5.72;1.30;;;;;;;26.11;45.79;93079.28;5133069;27;20043;-76
2022/09/15 07:50:39;;;;;;;5.53;1.20;;;;;;;26.30;44.39;93078.97;5132579;27;20039;-76
2022/09/15 07:53:06;;;;;;;4.20;1.38;;;;;;;26.36;44.83;93071.69;5104088;27;20113;-77
2022/09/15 07:55:33;;;;;;;2.75;1.15;;;;;;;26.49;44.25;93068.09;5132654;27;20039;-76
2022/09/15 07:58:02;;;;;;;3.95;1.00;;;;;;;26.60;44.19;93070.41;5132718;27;20104;-76
2022/09/15 08:00:28;;;;;;;2.95;1.00;;;;;;;26.60;43.68;93065.91;5132618;27;20038;-75
2022/09/15 08:02:55;;;;;;;3.75;1.23;;;;;;;26.66;43.33;93077.81;5132771;27;20096;-76
2022/09/15 08:05:25;;;;;;;4.97;1.65;;;;;;;26.81;43.89;93067.84;5132511;27;20092;-76
2022/09/15 08:07:52;;;;;;;4.20;1.70;;;;;;;26.95;43.77;93070.31;5132990;27;20051;-75
2022/09/15 08:10:19;;;;;;;3.95;1.48;;;;;;;27.10;42.97;93071.63;5132079;27;20122;-75
2022/09/15 08:12:46;;;;;;;2.75;1.52;;;;;;;27.28;43.59;93061.00;5132613;27;20051;-75
2022/09/15 08:15:14;;;;;;;2.80;1.42;;;;;;;27.38;43.03;93050.09;5132381;27;20437;-76
2022/09/15 08:17:41;;;;;;;5.07;1.35;;;;;;;27.54;42.65;93050.28;5132335;27;20108;-76
2022/09/15 08:20:08;;;;;;;3.72;1.50;;;;;;;27.50;41.64;93044.13;5120149;27;20067;-77
2022/09/15 08:22:34;;;;;;;4.82;1.08;;;;;;;27.55;41.75;93053.72;5130252;27;20043;-76
2022/09/15 08:25:01;;;;;;;5.65;1.60;;;;;;;27.53;41.34;93045.34;5131911;27;20047;-77
2022/09/15 08:27:28;;;;;;;6.97;1.63;;;;;;;27.65;41.58;93053.38;5110531;27;20093;-77
2022/09/15 08:29:55;;;;;;;2.60;1.20;;;;;;;27.81;41.38;93055.44;5111130;28;20043;-76
2022/09/15 08:32:23;;;;;;;6.28;1.50;;;;;;;27.99;40.83;93056.03;5112179;27;20089;-76
2022/09/15 08:34:50;;;;;;;4.85;1.42;;;;;;;28.13;41.57;93047.84;5132077;27;20099;-76
2022/09/15 08:37:17;;;;;;;6.43;1.23;;;;;;;28.24;40.07;93042.97;5124091;27;20047;-76
2022/09/15 08:39:44;;;;;;;5.30;1.25;;;;;;;28.40;39.46;93040.47;5131750;27;20095;-76
2022/09/15 08:42:15;;;;;;;3.78;1.00;;;;;;;28.44;39.23;93043.22;5131548;27;20047;-76
2022/09/15 08:44:47;;;;;;;5.38;2.28;;;;;;;28.46;38.75;93035.78;5131385;27;20047;-76
2022/09/15 08:47:17;;;;;;;5.43;1.58;;;;;;;28.56;38.61;93048.56;5131589;27;20047;-76
2022/09/15 08:49:58;;;;;;;6.75;1.35;;;;;;;28.54;37.84;93046.25;5131357;27;20100;-76
2022/09/15 08:52:31;;;;;;;5.10;1.17;;;;;;;28.64;37.83;93046.91;5109599;27;20101;-76
2022/09/15 08:55:05;;;;;;;7.25;1.45;;;;;;;28.54;37.95;93045.47;5103939;27;20103;-76
2022/09/15 08:57:32;;;;;;;5.70;1.17;;;;;;;28.52;38.03;93029.19;5131693;27;20043;-76
2022/09/15 08:59:59;;;;;;;2.75;1.10;;;;;;;28.53;37.52;93017.50;5131056;27;20108;-76
2022/09/15 09:02:55;;;;;;;6.75;1.35;;;;;;;28.68;38.01;93029.31;5116614;27;20054;-76
2022/09/15 09:05:39;;;;;;;4.13;1.20;;;;;;;28.76;37.33;93023.16;5101609;28;20518;-76
2022/09/15 09:08:24;;;;;;;7.13;1.13;;;;;;;28.84;36.91;93018.88;5130693;27;20049;-76
2022/09/15 09:10:52;;;;;;;;;;;;;;;28.95;36.89;93021.88;5131814;27;20051;-76
2022/09/15 09:13:29;;;;;;;3.65;1.30;;;;;;;29.06;37.91;93017.66;5130997;27;20332;-76
2022/09/15 09:16:11;;;;;;;7.32;1.05;;;;;;;29.22;37.31;93009.06;5131076;27;20560;-76
2022/09/15 09:18:53;;;;;;;2.90;1.48;;;;;;;29.32;36.50;93007.84;5131354;27;20087;-76
2022/09/15 09:21:27;;;;;;;3.42;1.20;;;;;;;29.39;36.18;93008.03;5105979;27;20567;-76
2022/09/15 09:24:04;;;;;;;5.78;1.48;;;;;;;29.54;36.29;93005.84;5130790;27;20171;-76
2022/09/15 09:26:33;;;;;;;10.48;1.30;;;;;;;29.65;35.97;93006.13;5112543;27;20044;-77
2022/09/15 09:29:02;;;;;;;7.53;1.15;;;;;;;29.77;35.04;92992.88;5107804;28;20047;-76
2022/09/15 09:31:29;;;;;;;6.65;1.55;;;;;;;29.85;35.44;92993.84;5123615;27;20499;-76
2022/09/15 09:34:04;;;;;;;7.10;1.27;;;;;;;29.90;35.50;92984.88;5120619;27;20058;-76
2022/09/15 09:36:33;;;;;;;3.78;1.33;;;;;;;30.03;35.80;92980.31;5096683;28;20150;-77
2022/09/15 09:39:02;;;;;;;8.70;1.27;;;;;;;30.09;35.58;92977.06;5089672;28;20097;-76
2022/09/15 09:41:35;;;;;;;6.05;1.45;;;;;;;30.22;35.21;92980.44;5089105;28;20048;-76
2022/09/15 09:44:07;;;;;;;7.63;1.27;;;;;;;30.28;35.14;92980.97;5089552;28;20044;-76
2022/09/15 09:46:34;;;;;;;9.23;2.40;;;;;;;30.43;35.51;92973.34;5096157;28;20130;-76
2022/09/15 09:49:04;;;;;;;8.38;1.55;;;;;;;30.51;34.19;92978.47;5102637;28;20127;-76
2022/09/15 09:51:38;;;;;;;6.60;1.50;;;;;;;30.54;33.99;92988.41;5102003;28;20449;-77
2022/09/15 09:54:14;;;;;;;4.00;1.23;;;;;;;30.58;33.51;92980.53;5107173;28;20042;-76
2022/09/15 09:56:41;;;;;;;4.35;1.63;;;;;;;30.58;34.03;92980.53;5097403;28;20055;-78
2022/09/15 09:59:33;;;;;;;5.18;0.95;;;;;;;30.56;33.27;92982.78;5090316;28;20062;-76
2022/09/15 10:02:14;;;;;;;4.45;1.38;;;;;;;30.46;33.08;92960.22;5102807;27;20094;-76
2022/09/15 10:04:43;;;;;;;4.35;1.00;;;;;;;30.79;33.38;92968.94;5130396;27;20430;-76
2022/09/15 10:07:12;;;;;;;4.70;1.00;;;;;;;30.99;33.96;92977.72;5122405;27;20134;-76
2022/09/15 10:09:40;;;;;;;5.18;1.25;;;;;;;30.98;32.76;92978.84;5088645;28;20097;-77
2022/09/15 10:12:07;;;;;;;2.35;0.80;;;;;;;31.06;32.35;92967.25;5098371;27;20039;-76
2022/09/15 10:14:36;;;;;;;5.07;1.10;;;;;;;31.14;33.38;92972.75;5130339;27;20043;-77
2022/09/15 10:17:08;;;;;;;5.75;1.50;;;;;;;31.33;33.10;92956.88;5130155;27;20388;-76
2022/09/15 10:19:44;;;;;;;5.97;1.05;;;;;;;31.47;33.13;92963.59;5122662;27;20100;-76
2022/09/15 10:22:22;;;;;;;5.07;1.40;;;;;;;31.69;32.77;92956.81;5124763;27;20051;-77
2022/09/15 10:24:49;;;;;;;3.30;1.02;;;;;;;31.78;33.27;92959.25;5130318;27;20194;-76
2022/09/15 10:27:19;;;;;;;5.45;1.23;;;;;;;31.97;32.56;92958.50;5129939;28;20410;-76
2022/09/15 10:29:46;;;;;;;2.75;0.90;;;;;;;32.17;32.02;92952.38;5130241;28;20096;-74
2022/09/15 10:32:21;;;;;;;8.07;1.10;;;;;;;32.23;32.53;92948.28;5114299;28;20052;-74
2022/09/15 10:34:48;;;;;;;7.85;1.20;;;;;;;32.23;32.67;92946.41;5096248;28;20124;-74
2022/09/15 10:37:27;;;;;;;3.38;1.17;;;;;;;32.14;32.88;92945.88;5111913;28;20047;-78
2022/09/15 10:39:55;;;;;;;6.15;1.20;;;;;;;32.18;32.73;92941.41;5127869;28;20046;-77
2022/09/15 10:42:40;;;;;;;6.70;1.20;;;;;;;32.21;32.45;92946.00;5107783;28;20093;-76
2022/09/15 10:45:18;;;;;;;4.25;1.40;;;;;;;32.32;31.79;92942.75;5122539;28;20051;-76
2022/09/15 10:48:01;;;;;;;5.45;0.90;;;;;;;32.18;32.52;92941.41;5129581;28;20510;-77
2022/09/15 10:50:33;;;;;;;5.22;1.35;;;;;;;32.36;32.61;92932.94;5129377;28;20081;-77
2022/09/15 10:53:16;;;;;;;5.90;1.30;;;;;;;32.39;32.11;92916.28;5123417;28;20047;-76
2022/09/15 10:55:50;;;;;;;8.27;1.27;;;;;;;32.08;31.32;92878.97;5123589;28;20503;-78
2022/09/15 10:58:36;;;;;;;6.03;1.33;;;;;;;32.25;31.82;92914.16;5103064;28;20047;-77
2022/09/15 11:01:23;;;;;;;10.90;1.65;;;;;;;32.43;32.82;92911.81;5129162;28;20058;-77
2022/09/15 11:04:08;;;;;;;4.97;1.20;;;;;;;32.47;32.29;92914.53;5129427;28;20047;-77
2022/09/15 11:06:40;;;;;;;6.40;1.65;;;;;;;32.49;31.89;92906.97;5129344;28;20425;-76
2022/09/15 11:09:22;;;;;;;6.32;1.40;;;;;;;32.57;32.22;92905.94;5129820;28;20062;-76
2022/09/15 11:12:03;;;;;;;3.83;1.40;;;;;;;32.70;31.61;92905.75;5130111;27;20514;-76
2022/09/15 11:14:42;;;;;;;7.05;1.42;;;;;;;32.66;31.26;92893.19;5133529;27;20047;-76
2022/09/15 11:17:23;;;;;;;8.15;1.55;;;;;;;32.68;31.75;92894.72;5133435;27;20047;-76
2022/09/15 11:20:17;;;;;;;6.47;1.42;;;;;;;32.61;31.63;92898.81;5123543;27;20097;-76
2022/09/15 11:22:48;;;;;;;5.75;1.30;;;;;;;32.48;31.77;92894.81;5132873;27;20090;-76
2022/09/15 11:25:20;;;;;;;6.75;1.60;;;;;;;32.30;31.78;92894.50;5133431;27;20046;-76
2022/09/15 11:27:53;;;;;;;5.10;1.42;;;;;;;32.29;32.04;92882.34;5133267;27;20051;-76
2022/09/15 11:30:23;;;;;;;6.50;1.38;;;;;;;32.12;32.59;92866.50;5132876;27;20087;-76
2022/09/15 11:32:56;;;;;;;7.45;1.85;;;;;;;32.08;32.46;92876.31;5132840;27;20047;-76
2022/09/15 11:35:44;;;;;;;6.80;1.50;;;;;;;32.06;32.22;92877.81;5107968;27;20048;-77
2022/09/15 11:38:21;;;;;;;8.38;1.70;;;;;;;32.05;33.11;92879.69;5122647;27;20437;-75
2022/09/15 11:40:57;;;;;;;9.48;2.67;;;;;;;31.99;33.30;92873.13;5133154;27;20051;-76
2022/09/15 11:43:33;;;;;;;7.70;1.60;;;;;;;31.89;33.17;92852.47;5133043;27;20633;-76
2022/09/15 11:46:02;;;;;;;7.32;1.45;;;;;;;32.04;32.65;92859.56;5117834;27;20050;-76